KAQW/AQW METAR and TAF weather

Enter ICAO airport designator
Station Type Date Time Source
KAQW METAR 2019/02/20 06:52 UTC NOAA

KAQW 200652Z AUTO 25003KT 10SM CLR M13/M15 A3056 RMK AO2 SLP361 T11281150


Station Type Date Time Source
KAQW Decoded METAR 2019/02/20 06:52 UTC NOAA

N ADAMS HARRIMAN-AND-WEST, MA, United States (KAQW) 42-42N 073-10W 201M
Feb 20, 2019 - 01:52 AM EST / 2019.02.20 0652 UTC
Wind: from the WSW (250 degrees) at 3 MPH (3 KT):0
Visibility: 10 mile(s):0
Sky conditions: clear
Temperature: 9.0 F (-12.8 C)
Dew Point: 5.0 F (-15.0 C)
Relative Humidity: 83%
Pressure (altimeter): 30.56 in. Hg (1034 hPa)
ob: KAQW 200652Z AUTO 25003KT 10SM CLR M13/M15 A3056 RMK AO2 SLP361 T11281150
cycle: 7

Station Type Date Time Source
KAQW TAF UTC NOAA

Error!


Example: see airport list